Palmer, Indiana
Current Conditions -  °F | °C
As of 8:35 AM on Thursday 27 Nov 2014 (Local Time) from KIGQ Reporting Station
Overcast Overcast  
Wind Chill: 15°   Ceiling: 1400
Heat Index: 25°   Visibility: 7mi
Dew Point: 20°   Wind: 10mph
Humidity: 82%   Direction: 310°NW
Pressure: 30.31"   Gusts: NA
Location:  41.4039°N, 87.3294°W
Report Text: KIGQ 271435Z AUTO 31009KT 7SM OVC014 M04/M07 A3031 RMK AO2 T10401066
Loading
Personal Weather Stations






























Interactive Weather Map New forecast layout! Learn more

10-Day Weather Forecast

Advertisements
Track Severe Weather on mobile